Time;durP1;ratioP1;P1;durP2;ratioP2;P2;SDS_P1;SDS_P2;PMS_P1;PMS_P2;Temp;Humidity;BMP_temperature;BMP_pressure;BME280_temperature;BME280_humidity;BME280_pressure;Samples;Min_cycle;Max_cycle;Signal;HPM_P1;HPM_P2
2023/10/21 00:00:09;;;;;;;;;;;;;;;23.22;43.70;92003.34;4894846;29;9075;-55
2023/10/21 00:02:37;;;;;;;;;;;;;;;23.19;43.71;91994.22;4894541;29;9528;-55
2023/10/21 00:05:07;;;;;;;;;;;;;;;23.20;43.56;92011.41;4893929;29;7364;-56
2023/10/21 00:07:33;;;;;;;;;;;;;;;23.20;44.26;92014.16;4870990;29;9232;-56
2023/10/21 00:09:59;;;;;;;;;;;;;;;23.20;43.37;92019.63;4876768;29;7106;-56
2023/10/21 00:12:28;;;;;;;;;;;;;;;23.21;43.59;92027.28;4935501;28;7480;-56
2023/10/21 00:14:59;;;;;;;;;;;;;;;23.20;43.70;92027.84;4950430;28;7259;-56
2023/10/21 00:17:28;;;;;;;;;;;;;;;23.19;43.80;92035.34;4956462;28;7257;-56
2023/10/21 00:20:08;;;;;;;;;;;;;;;23.23;43.92;92051.41;4949687;28;9092;-56
2023/10/21 00:22:36;;;;;;;;;;;;;;;23.20;44.27;92053.28;4970679;28;7280;-56
2023/10/21 00:25:20;;;;;;;;;;;;;;;23.20;43.53;92053.28;5047282;28;7284;-56
2023/10/21 00:27:49;;;;;;;;;;;;;;;23.22;43.33;92060.94;5037422;28;7206;-56
2023/10/21 00:30:15;;;;;;;;;;;;;;;23.17;43.80;92065.31;5053824;28;7682;-56
2023/10/21 00:32:55;;;;;;;;;;;;;;;23.18;44.03;92069.50;5053849;28;7013;-56
2023/10/21 00:35:34;;;;;;;;;;;;;;;23.18;43.77;92075.00;5053252;28;9116;-56
2023/10/21 00:38:12;;;;;;;;;;;;;;;23.18;43.58;92085.97;5070229;28;7200;-56
2023/10/21 00:40:49;;;;;;;;;;;;;;;23.17;43.83;92079.03;5059066;28;8769;-56
2023/10/21 00:43:42;;;;;;;;;;;;;;;23.19;43.51;92083.97;5062792;28;7230;-56
2023/10/21 00:46:16;;;;;;;;;;;;;;;23.19;43.60;92092.19;5080620;28;7236;-56
2023/10/21 00:48:49;;;;;;;;;;;;;;;23.20;43.45;92090.94;5038556;28;7189;-56
2023/10/21 00:51:16;;;;;;;;;;;;;;;23.19;43.74;92092.19;5079746;28;9223;-56
2023/10/21 00:53:46;;;;;;;;;;;;;;;23.20;43.62;92093.66;5080170;28;7209;-56
2023/10/21 00:56:18;;;;;;;;;;;;;;;23.18;43.99;92091.44;5061735;28;7004;-56
2023/10/21 00:58:49;;;;;;;;;;;;;;;23.18;44.02;92088.00;5076830;28;8767;-56
2023/10/21 01:01:27;;;;;;;;;;;;;;;23.17;43.74;92102.97;5063082;28;7300;-56
2023/10/21 01:04:08;;;;;;;;;;;;;;;23.14;43.81;92099.31;5054313;28;7200;-56
2023/10/21 01:06:38;;;;;;;;;;;;;;;23.17;43.86;92097.50;5076684;28;7325;-56
2023/10/21 01:09:32;;;;;;;;;;;;;;;23.18;43.73;92110.66;5085214;28;7533;-56
2023/10/21 01:12:01;;;;;;;;;;;;;;;23.14;44.19;92110.28;5059971;28;7234;-56
2023/10/21 01:14:27;;;;;;;;;;;;;;;23.16;43.72;92124.19;5058321;28;7101;-62
2023/10/21 01:16:54;;;;;;;;;;;;;;;23.15;44.31;92125.47;5069530;28;7661;-62
2023/10/21 01:19:20;;;;;;;;;;;;;;;23.17;43.59;92135.88;5086316;28;7254;-62
2023/10/21 01:21:46;;;;;;;;;;;;;;;23.17;43.96;92139.38;5086849;28;7165;-62
2023/10/21 01:24:12;;;;;;;;;;;;;;;23.13;43.86;92144.50;5065586;28;7539;-62
2023/10/21 01:26:38;;;;;;;;;;;;;;;23.14;43.59;92148.69;5053728;28;9260;-62
2023/10/21 01:29:09;;;;;;;;;;;;;;;23.14;43.73;92143.19;5054612;28;8730;-62
2023/10/21 01:31:36;;;;;;;;;;;;;;;23.13;43.95;92135.53;5072532;28;8787;-62
2023/10/21 01:34:02;;;;;;;;;;;;;;;23.13;43.75;92141.75;5070738;28;8800;-62
2023/10/21 01:36:35;;;;;;;;;;;;;;;23.15;43.92;92143.94;5046589;28;9123;-62
2023/10/21 01:39:05;;;;;;;;;;;;;;;23.14;43.73;92154.16;5047471;28;7219;-61
2023/10/21 01:41:41;;;;;;;;;;;;;;;23.12;44.02;92153.97;5056570;28;7241;-62
2023/10/21 01:44:15;;;;;;;;;;;;;;;23.15;43.90;92155.63;5046924;28;7155;-62
2023/10/21 01:46:43;;;;;;;;;;;;;;;23.15;43.66;92158.38;5074797;28;6993;-62
2023/10/21 01:49:09;;;;;;;;;;;;;;;23.14;43.88;92156.19;5047989;28;7263;-62
2023/10/21 01:51:38;;;;;;;;;;;;;;;23.15;43.68;92152.91;5078676;28;9075;-62
2023/10/21 01:54:20;;;;;;;;;;;;;;;23.10;43.83;92156.53;5033519;28;9081;-62
2023/10/21 01:56:59;;;;;;;;;;;;;;;23.14;43.75;92170.63;5073316;28;7260;-62
2023/10/21 01:59:54;;;;;;;;;;;;;;;23.15;43.59;92172.09;5046915;28;7227;-61
2023/10/21 02:02:34;;;;;;;;;;;;;;;23.15;43.49;92183.06;5004520;28;7282;-62
2023/10/21 02:05:00;;;;;;;;;;;;;;;23.14;44.06;92180.88;4990242;28;7331;-62
2023/10/21 02:07:29;;;;;;;;;;;;;;;23.13;43.91;92193.09;4995936;28;9189;-62
2023/10/21 02:10:05;;;;;;;;;;;;;;;23.13;44.05;92196.59;5015361;28;7087;-63
2023/10/21 02:12:44;;;;;;;;;;;;;;;23.11;43.85;92196.41;5008502;28;9005;-61
2023/10/21 02:15:29;;;;;;;;;;;;;;;23.12;44.08;92199.84;4976101;28;8776;-62
2023/10/21 02:17:57;;;;;;;;;;;;;;;23.11;43.81;92210.13;4997963;28;9086;-62
2023/10/21 02:20:25;;;;;;;;;;;;;;;23.12;43.92;92217.03;4979564;28;9176;-62
2023/10/21 02:22:52;;;;;;;;;;;;;;;23.10;43.61;92214.13;5001996;28;9382;-62
2023/10/21 02:25:19;;;;;;;;;;;;;;;23.11;43.78;92221.09;4994073;28;9397;-63
2023/10/21 02:28:04;;;;;;;;;;;;;;;23.12;43.82;92221.78;5013107;28;7346;-64
2023/10/21 02:30:29;;;;;;;;;;;;;;;23.10;43.76;92218.88;4980783;28;9297;-64
2023/10/21 02:32:57;;;;;;;;;;;;;;;23.13;43.97;92231.50;4982820;28;9234;-64
2023/10/21 02:35:35;;;;;;;;;;;;;;;23.12;43.88;92243.72;4994317;28;9253;-64
2023/10/21 02:38:01;;;;;;;;;;;;;;;23.12;43.71;92243.72;5018039;28;7242;-64
2023/10/21 02:41:03;;;;;;;;;;;;;;;23.12;44.11;92255.44;5058102;28;8778;-64
2023/10/21 02:43:54;;;;;;;;;;;;;;;23.12;43.40;92254.69;4998077;28;9048;-64
2023/10/21 02:46:22;;;;;;;;;;;;;;;23.09;43.67;92259.28;4995701;28;7463;-64
2023/10/21 02:49:03;;;;;;;;;;;;;;;23.09;43.71;92259.28;4989246;28;7367;-64
2023/10/21 02:51:34;;;;;;;;;;;;;;;23.11;43.85;92262.22;4989873;28;7241;-64
2023/10/21 02:54:03;;;;;;;;;;;;;;;23.09;44.12;92272.25;4997273;28;8667;-64
2023/10/21 02:56:41;;;;;;;;;;;;;;;23.11;43.86;92269.69;4995444;28;7144;-64
2023/10/21 02:59:20;;;;;;;;;;;;;;;23.11;43.49;92281.41;4979656;28;7253;-64
2023/10/21 03:02:08;;;;;;;;;;;;;;;23.12;43.17;92282.13;5000518;28;9120;-64
2023/10/21 03:05:00;;;;;;;;;;;;;;;23.10;44.07;92285.41;4997364;28;7959;-64
2023/10/21 03:07:28;;;;;;;;;;;;;;;23.10;43.51;92292.91;5003535;28;7041;-64
2023/10/21 03:10:24;;;;;;;;;;;;;;;23.09;44.08;92300.41;4994933;28;7049;-64
2023/10/21 03:13:19;;;;;;;;;;;;;;;23.08;43.54;92296.19;4959137;28;8775;-64
2023/10/21 03:16:05;;;;;;;;;;;;;;;23.10;44.07;92304.59;4902279;29;7266;-64
2023/10/21 03:18:32;;;;;;;;;;;;;;;23.10;43.75;92304.59;4922496;29;8847;-64
2023/10/21 03:21:09;;;;;;;;;;;;;;;23.10;43.99;92312.09;4929006;29;7284;-64
2023/10/21 03:23:37;;;;;;;;;;;;;;;23.07;43.79;92313.19;4936660;29;7629;-64
2023/10/21 03:26:06;;;;;;;;;;;;;;;23.08;44.25;92320.88;4936522;29;9121;-64
2023/10/21 03:28:35;;;;;;;;;;;;;;;23.09;43.50;92319.59;4936529;28;7225;-64
2023/10/21 03:31:06;;;;;;;;;;;;;;;23.08;43.62;92311.91;4936313;29;7502;-64
2023/10/21 03:33:33;;;;;;;;;;;;;;;23.07;44.05;92316.69;4934899;29;7493;-62
2023/10/21 03:36:04;;;;;;;;;;;;;;;23.04;43.84;92320.50;4934872;29;7066;-62
2023/10/21 03:38:34;;;;;;;;;;;;;;;23.07;43.97;92330.38;4941263;28;9142;-62
2023/10/21 03:41:09;;;;;;;;;;;;;;;23.09;43.56;92338.06;4940360;28;7397;-61
2023/10/21 03:43:48;;;;;;;;;;;;;;;23.06;43.54;92336.41;4936439;29;8984;-62
2023/10/21 03:46:51;;;;;;;;;;;;;;;23.08;43.78;92348.28;4929049;29;7283;-62
2023/10/21 03:49:17;;;;;;;;;;;;;;;23.10;44.22;92353.22;4882245;29;9084;-61
2023/10/21 03:51:45;;;;;;;;;;;;;;;23.05;44.17;92354.13;4948314;28;7242;-62
2023/10/21 03:54:11;;;;;;;;;;;;;;;23.04;43.87;92363.63;4945439;28;8859;-62
2023/10/21 03:56:40;;;;;;;;;;;;;;;23.06;43.79;92364.56;4951863;28;6963;-62
2023/10/21 03:59:16;;;;;;;;;;;;;;;23.05;43.71;92367.84;4939084;28;9087;-62
2023/10/21 04:01:57;;;;;;;;;;;;;;;23.05;43.70;92373.31;4954068;28;9071;-62
2023/10/21 04:04:35;;;;;;;;;;;;;;;23.05;43.52;92368.56;4971127;28;7012;-62
2023/10/21 04:07:07;;;;;;;;;;;;;;;23.05;44.08;92371.28;4949351;28;9224;-62
2023/10/21 04:09:36;;;;;;;;;;;;;;;23.02;44.01;92380.63;4938661;28;7382;-62
2023/10/21 04:12:15;;;;;;;;;;;;;;;23.05;44.11;92371.28;4940922;28;6991;-62
2023/10/21 04:14:54;;;;;;;;;;;;;;;23.05;43.98;92365.81;4970467;28;7237;-61
2023/10/21 04:17:21;;;;;;;;;;;;;;;23.06;43.47;92380.25;4939023;28;7247;-62
2023/10/21 04:19:50;;;;;;;;;;;;;;;23.05;43.88;92378.81;4971315;28;7220;-62
2023/10/21 04:22:18;;;;;;;;;;;;;;;23.05;43.66;92385.00;4939884;28;8823;-62
2023/10/21 04:24:46;;;;;;;;;;;;;;;23.04;44.32;92383.56;5067737;28;7244;-62
2023/10/21 04:27:30;;;;;;;;;;;;;;;23.04;44.00;92385.56;5056667;28;7236;-62
2023/10/21 04:29:58;;;;;;;;;;;;;;;23.05;43.82;92389.78;5055793;28;7238;-62
2023/10/21 04:32:29;;;;;;;;;;;;;;;23.04;44.31;92396.53;5086337;28;7300;-62
2023/10/21 04:34:59;;;;;;;;;;;;;;;23.02;43.48;92397.06;5044730;28;7173;-62
2023/10/21 04:37:40;;;;;;;;;;;;;;;23.04;44.06;92394.53;5073929;28;7242;-62
2023/10/21 04:40:08;;;;;;;;;;;;;;;23.05;44.32;92398.72;5059182;28;7625;-62
2023/10/21 04:42:49;;;;;;;;;;;;;;;23.04;44.26;92402.75;5045337;28;7352;-62
2023/10/21 04:45:20;;;;;;;;;;;;;;;23.05;43.55;92409.69;5047118;28;7087;-62
2023/10/21 04:47:52;;;;;;;;;;;;;;;23.04;43.70;92413.72;5043073;28;7294;-62
2023/10/21 04:50:18;;;;;;;;;;;;;;;23.03;43.99;92414.97;5088946;28;8821;-61
2023/10/21 04:52:45;;;;;;;;;;;;;;;23.02;44.16;92418.25;5051909;28;6981;-62
2023/10/21 04:55:17;;;;;;;;;;;;;;;23.02;43.93;92410.78;5075681;28;9206;-62
2023/10/21 04:57:46;;;;;;;;;;;;;;;23.01;43.68;92409.31;5042415;28;8811;-62
2023/10/21 05:00:16;;;;;;;;;;;;;;;23.02;44.38;92427.22;5073813;28;7235;-62
2023/10/21 05:02:45;;;;;;;;;;;;;;;23.01;43.82;92427.78;5052633;28;8955;-63
2023/10/21 05:05:14;;;;;;;;;;;;;;;23.04;43.65;92437.66;5058971;28;7259;-62
2023/10/21 05:07:40;;;;;;;;;;;;;;;23.03;43.49;92439.66;5064324;28;7207;-61
2023/10/21 05:10:19;;;;;;;;;;;;;;;23.05;44.21;92441.88;5082485;28;7185;-62
2023/10/21 05:13:16;;;;;;;;;;;;;;;23.03;43.95;92453.34;5094071;28;7199;-62
2023/10/21 05:15:42;;;;;;;;;;;;;;;23.03;43.94;92452.66;4992305;28;8689;-61
2023/10/21 05:18:20;;;;;;;;;;;;;;;23.03;43.71;92455.38;4983654;28;7019;-62
2023/10/21 05:20:59;;;;;;;;;;;;;;;23.00;43.59;92472.91;4971555;28;9111;-62
2023/10/21 05:23:26;;;;;;;;;;;;;;;23.00;43.88;92479.13;4995691;28;7910;-62
2023/10/21 05:26:03;;;;;;;;;;;;;;;23.01;43.69;92479.88;4974122;28;8730;-61
2023/10/21 05:28:29;;;;;;;;;;;;;;;23.01;43.83;92486.06;4997329;28;7366;-62
2023/10/21 05:30:55;;;;;;;;;;;;;;;23.01;43.99;92485.34;4978692;28;8719;-62
2023/10/21 05:33:26;;;;;;;;;;;;;;;23.02;43.90;92484.06;4975515;28;7177;-61
2023/10/21 05:36:06;;;;;;;;;;;;;;;23.01;43.74;92486.06;4975875;28;6996;-62
2023/10/21 05:39:05;;;;;;;;;;;;;;;23.02;43.94;92495.78;4976485;28;7070;-62
2023/10/21 05:41:46;;;;;;;;;;;;;;;23.01;44.08;92491.56;4971473;28;7460;-61
2023/10/21 05:44:33;;;;;;;;;;;;;;;22.98;44.06;92491.91;4972508;28;9034;-62
2023/10/21 05:47:00;;;;;;;;;;;;;;;23.00;43.90;92506.53;4972463;28;7192;-61
2023/10/21 05:49:54;;;;;;;;;;;;;;;23.01;44.18;92513.47;4972536;28;9152;-61
2023/10/21 05:52:29;;;;;;;;;;;;;;;22.99;44.22;92524.25;4999939;28;8850;-62
2023/10/21 05:55:27;;;;;;;;;;;;;;;23.03;43.75;92537.63;5022457;28;8871;-62
2023/10/21 05:58:11;;;;;;;;;;;;;;;22.97;43.89;92545.25;5036548;28;8785;-62
2023/10/21 06:00:52;;;;;;;;;;;;;;;22.98;44.03;92549.47;5031167;28;9120;-61
2023/10/21 06:03:20;;;;;;;;;;;;;;;22.97;44.10;92551.47;5033514;28;8996;-64
2023/10/21 06:05:57;;;;;;;;;;;;;;;22.98;43.92;92563.19;5025613;28;10159;-63
2023/10/21 06:08:33;;;;;;;;;;;;;;;23.00;44.04;92566.13;5025376;28;9131;-63
2023/10/21 06:11:13;;;;;;;;;;;;;;;22.98;44.00;92560.44;5032934;28;7066;-63
2023/10/21 06:13:50;;;;;;;;;;;;;;;22.99;43.95;92565.38;5022132;28;7141;-63
2023/10/21 06:16:16;;;;;;;;;;;;;;;22.99;43.91;92564.63;5039826;28;7614;-63
2023/10/21 06:18:54;;;;;;;;;;;;;;;22.98;43.74;92572.16;5069032;28;7263;-63
2023/10/21 06:21:20;;;;;;;;;;;;;;;22.99;44.13;92570.88;5079141;28;9044;-63
2023/10/21 06:23:52;;;;;;;;;;;;;;;22.99;43.63;92570.88;5058727;28;9054;-63
2023/10/21 06:26:21;;;;;;;;;;;;;;;22.98;43.79;92572.16;5052397;28;9050;-62
2023/10/21 06:28:48;;;;;;;;;;;;;;;22.99;44.21;92578.34;5035845;28;6962;-63
2023/10/21 06:31:16;;;;;;;;;;;;;;;22.97;44.28;92580.91;5044695;28;7053;-63
2023/10/21 06:33:53;;;;;;;;;;;;;;;22.96;43.80;92599.38;5097298;28;6986;-63
2023/10/21 06:36:27;;;;;;;;;;;;;;;22.95;44.28;92605.38;5053406;28;7383;-63
2023/10/21 06:39:05;;;;;;;;;;;;;;;22.91;44.16;92608.47;5079284;28;8791;-63
2023/10/21 06:41:52;;;;;;;;;;;;;;;22.95;43.79;92616.34;5072404;28;8737;-63
2023/10/21 06:44:35;;;;;;;;;;;;;;;22.97;43.86;92620.03;5059354;28;7120;-63
2023/10/21 06:47:05;;;;;;;;;;;;;;;22.98;43.58;92618.03;5053103;28;7219;-63
2023/10/21 06:49:31;;;;;;;;;;;;;;;22.98;43.54;92624.25;5037263;28;9433;-63
2023/10/21 06:51:58;;;;;;;;;;;;;;;22.97;43.75;92630.97;5046317;28;8817;-63
2023/10/21 06:54:26;;;;;;;;;;;;;;;22.98;43.96;92628.97;5056054;28;7337;-63
2023/10/21 06:57:27;;;;;;;;;;;;;;;22.99;44.25;92633.19;5056152;28;9260;-63
2023/10/21 07:00:04;;;;;;;;;;;;;;;22.97;43.98;92638.47;5000990;28;8707;-63
2023/10/21 07:02:45;;;;;;;;;;;;;;;22.99;43.91;92635.91;4978428;28;9194;-63
2023/10/21 07:05:11;;;;;;;;;;;;;;;22.96;43.95;92637.75;4985938;28;8730;-63
2023/10/21 07:07:48;;;;;;;;;;;;;;;23.00;43.71;92654.59;5009517;28;8778;-63
2023/10/21 07:10:16;;;;;;;;;;;;;;;22.97;44.00;92661.13;5000422;28;9421;-62
2023/10/21 07:12:52;;;;;;;;;;;;;;;22.97;43.79;92669.38;5010117;28;9074;-63
2023/10/21 07:15:32;;;;;;;;;;;;;;;22.97;44.05;92671.38;4984525;28;6991;-62
2023/10/21 07:17:58;;;;;;;;;;;;;;;22.96;43.94;92667.91;4996215;28;6926;-62
2023/10/21 07:20:25;;;;;;;;;;;;;;;22.97;43.80;92677.59;5011160;28;7330;-61
2023/10/21 07:22:52;;;;;;;;;;;;;;;22.98;43.77;92672.84;4994629;28;7089;-61
2023/10/21 07:25:18;;;;;;;;;;;;;;;22.98;43.77;92679.06;5008286;28;9012;-62
2023/10/21 07:28:00;;;;;;;;;;;;;;;22.98;43.70;92676.34;4987748;28;7033;-62
2023/10/21 07:30:27;;;;;;;;;;;;;;;22.98;43.72;92681.81;4994621;28;7227;-61
2023/10/21 07:32:56;;;;;;;;;;;;;;;22.98;43.77;92684.56;4991239;28;7170;-62
2023/10/21 07:35:24;;;;;;;;;;;;;;;22.97;43.92;92685.81;5025563;28;7533;-61
2023/10/21 07:37:51;;;;;;;;;;;;;;;22.96;44.04;92702.81;5093055;28;7276;-62
2023/10/21 07:40:18;;;;;;;;;;;;;;;22.96;44.01;92697.31;5062160;28;9090;-62
2023/10/21 07:42:44;;;;;;;;;;;;;;;22.93;43.79;92693.63;5054716;28;7238;-62
2023/10/21 07:45:14;;;;;;;;;;;;;;;22.97;43.71;92701.53;5087346;28;7348;-62
2023/10/21 07:47:41;;;;;;;;;;;;;;;22.97;43.78;92702.25;5075057;28;8945;-62
2023/10/21 07:50:08;;;;;;;;;;;;;;;22.97;43.96;92702.25;5075957;28;7368;-62
2023/10/21 07:52:36;;;;;;;;;;;;;;;22.97;43.77;92705.00;5062821;28;7311;-62
2023/10/21 07:55:05;;;;;;;;;;;;;;;22.98;43.71;92713.97;5060895;28;9066;-61
2023/10/21 07:57:34;;;;;;;;;;;;;;;22.98;43.44;92724.94;5058508;28;7730;-61
2023/10/21 08:00:00;;;;;;;;;;;;;;;22.98;44.00;92728.44;5069372;28;9252;-62
2023/10/21 08:02:27;;;;;;;;;;;;;;;22.98;43.82;92731.16;5062225;28;9041;-61
2023/10/21 08:04:53;;;;;;;;;;;;;;;23.01;44.10;92729.38;5051513;28;7241;-62
2023/10/21 08:07:19;;;;;;;;;;;;;;;23.00;43.55;92730.63;5052596;28;7429;-62
2023/10/21 08:09:47;;;;;;;;;;;;;;;22.97;44.06;92734.41;5049244;28;9070;-62
2023/10/21 08:12:40;;;;;;;;;;;;;;;23.00;44.22;92736.09;5071832;28;9167;-62
2023/10/21 08:15:07;;;;;;;;;;;;;;;22.97;43.78;92737.91;5001145;28;7124;-62
2023/10/21 08:17:43;;;;;;;;;;;;;;;22.98;43.85;92733.91;4985626;28;7003;-61
2023/10/21 08:20:12;;;;;;;;;;;;;;;22.95;44.11;92728.75;4981744;28;7265;-62
2023/10/21 08:22:39;;;;;;;;;;;;;;;22.98;44.09;92739.41;4986098;28;7419;-62
2023/10/21 08:25:06;;;;;;;;;;;;;;;22.95;44.13;92736.97;5015648;28;7415;-62
2023/10/21 08:27:33;;;;;;;;;;;;;;;22.98;43.67;92744.13;5015116;28;7278;-62
2023/10/21 08:29:59;;;;;;;;;;;;;;;22.97;43.98;92748.88;5014020;28;8760;-62
2023/10/21 08:32:25;;;;;;;;;;;;;;;22.97;43.83;92746.13;5003886;28;8655;-62
2023/10/21 08:34:51;;;;;;;;;;;;;;;22.97;43.72;92753.63;5003180;28;7921;-62
2023/10/21 08:37:17;;;;;;;;;;;;;;;22.93;43.67;92755.94;5004262;28;7367;-62
2023/10/21 08:39:44;;;;;;;;;;;;;;;22.93;44.05;92759.44;5000566;28;7262;-62
2023/10/21 08:42:10;;;;;;;;;;;;;;;22.94;43.83;92760.91;4997148;28;9105;-62
2023/10/21 08:44:40;;;;;;;;;;;;;;;22.96;43.83;92768.59;4992556;28;6979;-62
2023/10/21 08:47:11;;;;;;;;;;;;;;;22.96;43.71;92772.09;5019558;28;8966;-62
2023/10/21 08:49:41;;;;;;;;;;;;;;;22.95;43.91;92767.13;4997512;28;7195;-62
2023/10/21 08:52:13;;;;;;;;;;;;;;;22.96;43.81;92774.84;5029830;28;7054;-62
2023/10/21 08:54:46;;;;;;;;;;;;;;;22.95;44.22;92773.34;5050541;28;7243;-62
2023/10/21 08:57:12;;;;;;;;;;;;;;;22.96;44.06;92777.56;5057529;28;7029;-62
2023/10/21 08:59:39;;;;;;;;;;;;;;;22.96;44.19;92766.59;5072621;28;9106;-62
2023/10/21 09:02:07;;;;;;;;;;;;;;;22.97;43.88;92773.53;5070031;28;9135;-62
2023/10/21 09:04:35;;;;;;;;;;;;;;;22.96;44.23;92774.84;5075438;28;8828;-62
2023/10/21 09:07:07;;;;;;;;;;;;;;;22.94;44.30;92777.38;5051849;28;8787;-62
2023/10/21 09:09:37;;;;;;;;;;;;;;;22.91;44.24;92778.41;5058645;28;7308;-62
2023/10/21 09:12:11;;;;;;;;;;;;;;;22.93;44.20;92775.88;5048052;28;7274;-62
2023/10/21 09:14:59;;;;;;;;;;;;;;;22.93;44.09;92780.63;5044524;28;7218;-62
2023/10/21 09:17:41;;;;;;;;;;;;;;;22.91;44.04;92783.91;5067859;28;7454;-62
2023/10/21 09:20:10;;;;;;;;;;;;;;;22.90;44.34;92782.41;5060305;28;7320;-62
2023/10/21 09:22:39;;;;;;;;;;;;;;;22.92;44.35;92785.38;5051513;28;7490;-62
2023/10/21 09:25:15;;;;;;;;;;;;;;;22.93;43.99;92784.13;5062283;28;8427;-62
2023/10/21 09:27:43;;;;;;;;;;;;;;;22.93;44.28;92789.59;5066125;28;8997;-62
2023/10/21 09:30:22;;;;;;;;;;;;;;;22.93;43.96;92792.34;5078833;28;7841;-62
2023/10/21 09:32:49;;;;;;;;;;;;;;;22.91;44.33;92788.66;5067424;28;7246;-62
2023/10/21 09:35:26;;;;;;;;;;;;;;;22.91;44.11;92797.63;5051727;28;9289;-55
2023/10/21 09:37:53;;;;;;;;;;;;;;;22.92;44.21;92792.88;5070470;28;6980;-55
2023/10/21 09:40:20;;;;;;;;;;;;;;;22.92;44.35;92798.34;5070208;28;9529;-55
2023/10/21 09:42:55;;;;;;;;;;;;;;;22.92;44.42;92806.59;5066589;28;7392;-55
2023/10/21 09:45:28;;;;;;;;;;;;;;;22.92;44.68;92806.59;5064989;28;7256;-54
2023/10/21 09:48:04;;;;;;;;;;;;;;;22.92;44.39;92807.28;5057864;28;8771;-55
2023/10/21 09:50:34;;;;;;;;;;;;;;;22.95;44.06;92821.94;5061885;28;7179;-55
2023/10/21 09:53:15;;;;;;;;;;;;;;;22.92;44.14;92817.53;5060278;28;7221;-55
2023/10/21 09:55:41;;;;;;;;;;;;;;;22.93;44.28;92819.75;5071041;28;8725;-55
2023/10/21 09:58:12;;;;;;;;;;;;;;;22.92;44.20;92815.53;5038370;28;7214;-55
2023/10/21 10:00:40;;;;;;;;;;;;;;;22.90;44.49;92820.09;5061967;28;7013;-55
2023/10/21 10:03:16;;;;;;;;;;;;;;;22.89;44.51;92808.38;5048810;28;6969;-55
2023/10/21 10:05:46;;;;;;;;;;;;;;;22.92;44.18;92812.78;5034471;28;9043;-55
2023/10/21 10:08:16;;;;;;;;;;;;;;;22.91;44.38;92807.84;5060635;28;8855;-54
2023/10/21 10:10:45;;;;;;;;;;;;;;;22.89;44.32;92811.13;5056208;28;7362;-55
2023/10/21 10:13:20;;;;;;;;;;;;;;;22.91;44.29;92811.31;5072020;28;7260;-55
2023/10/21 10:15:58;;;;;;;;;;;;;;;22.93;44.10;92813.53;5053041;28;7341;-54
2023/10/21 10:18:32;;;;;;;;;;;;;;;22.91;44.63;92818.81;5046051;28;7263;-55
2023/10/21 10:21:04;;;;;;;;;;;;;;;22.92;44.26;92826.50;5058120;28;6988;-54
2023/10/21 10:23:35;;;;;;;;;;;;;;;22.90;44.10;92820.81;5052300;28;7235;-55
2023/10/21 10:26:09;;;;;;;;;;;;;;;22.92;44.23;92825.78;5069277;28;7409;-54
2023/10/21 10:28:45;;;;;;;;;;;;;;;22.92;44.33;92823.03;5097115;28;7252;-55
2023/10/21 10:31:11;;;;;;;;;;;;;;;22.89;44.45;92822.09;5060959;28;9279;-55
2023/10/21 10:33:39;;;;;;;;;;;;;;;22.89;44.65;92818.59;5056911;28;7068;-55
2023/10/21 10:36:06;;;;;;;;;;;;;;;22.93;44.81;92819.00;5058955;28;7326;-55
2023/10/21 10:38:54;;;;;;;;;;;;;;;22.92;44.07;92826.50;5040895;28;7270;-54
2023/10/21 10:41:31;;;;;;;;;;;;;;;22.89;44.32;92819.34;5069146;28;7006;-55
2023/10/21 10:44:06;;;;;;;;;;;;;;;22.87;44.24;92813.66;5061786;28;7351;-56
2023/10/21 10:46:36;;;;;;;;;;;;;;;22.89;44.49;92821.34;5045851;28;7292;-56
2023/10/21 10:49:08;;;;;;;;;;;;;;;22.87;44.38;92815.66;5053609;28;7249;-56
2023/10/21 10:51:44;;;;;;;;;;;;;;;22.90;44.49;92820.81;5058764;28;9469;-56
2023/10/21 10:54:28;;;;;;;;;;;;;;;22.90;44.48;92825.56;5025210;28;6993;-56
2023/10/21 10:56:58;;;;;;;;;;;;;;;22.91;44.58;92818.81;5086641;28;7218;-56
2023/10/21 10:59:27;;;;;;;;;;;;;;;22.90;44.51;92823.53;5073050;28;7184;-56
2023/10/21 11:02:01;;;;;;;;;;;;;;;22.89;44.38;92830.31;5070792;28;9190;-56
2023/10/21 11:04:29;;;;;;;;;;;;;;;22.91;44.51;92829.75;5073897;28;7432;-56
2023/10/21 11:06:56;;;;;;;;;;;;;;;22.92;44.68;92826.50;5037917;28;8789;-56
2023/10/21 11:09:30;;;;;;;;;;;;;;;22.92;44.00;92825.78;5075054;28;7232;-56
2023/10/21 11:11:57;;;;;;;;;;;;;;;22.91;44.58;92822.28;5083894;28;9298;-56
2023/10/21 11:14:27;;;;;;;;;;;;;;;22.91;44.66;92830.50;5057266;28;7517;-56
2023/10/21 11:16:55;;;;;;;;;;;;;;;22.92;44.34;92828.50;5057803;28;9083;-56
2023/10/21 11:19:23;;;;;;;;;;;;;;;22.91;44.09;92822.28;5047590;28;7145;-56
2023/10/21 11:21:52;;;;;;;;;;;;;;;22.92;44.44;92820.28;5083765;28;6989;-56
2023/10/21 11:24:22;;;;;;;;;;;;;;;22.91;44.63;92822.28;5044737;28;8796;-56
2023/10/21 11:26:52;;;;;;;;;;;;;;;22.90;44.78;92833.78;5057794;28;7485;-56
2023/10/21 11:29:22;;;;;;;;;;;;;;;22.91;44.08;92825.03;5052874;28;7243;-56
2023/10/21 11:31:53;;;;;;;;;;;;;;;22.90;43.92;92820.81;5062313;28;7232;-56
2023/10/21 11:34:19;;;;;;;;;;;;;;;22.88;44.38;92828.09;5075402;28;7097;-56
2023/10/21 11:36:48;;;;;;;;;;;;;;;22.89;44.20;92830.31;5062998;28;7233;-56
2023/10/21 11:39:48;;;;;;;;;;;;;;;22.91;44.15;92836.00;5056977;28;9598;-56
2023/10/21 11:42:19;;;;;;;;;;;;;;;22.91;44.14;92833.25;4989302;28;7199;-56
2023/10/21 11:45:17;;;;;;;;;;;;;;;22.90;44.36;92826.28;5012461;28;7400;-56
2023/10/21 11:47:52;;;;;;;;;;;;;;;22.91;44.67;92833.25;4986250;28;7231;-57
2023/10/21 11:50:58;;;;;;;;;;;;;;;22.93;44.15;92832.72;4977200;28;9224;-56
2023/10/21 11:53:24;;;;;;;;;;;;;;;22.92;44.18;92834.00;5013066;28;7280;-63
2023/10/21 11:56:53;;;;;;;;;;;;;;;22.90;44.24;92825.56;5007537;28;9112;-62
2023/10/21 12:05:47;;;;;;;;;;;;;;;22.88;44.57;92837.03;4992818;28;7251;-62
2023/10/21 12:11:47;;;;;;;;;;;;;;;22.90;44.19;92837.25;4998198;28;8761;-62
2023/10/21 12:14:04;;;;;;;;;;;;;;;22.91;44.48;92832.50;4975797;28;6974;-62
2023/10/21 12:19:48;;;;;;;;;;;;;;;22.90;44.38;92844.75;5002486;28;9265;-62
2023/10/21 12:37:15;;;;;;;;;;;;;;;22.90;45.08;92864.66;4953816;28;9063;-61
2023/10/21 12:39:46;;;;;;;;;;;;;;;22.88;44.24;92864.47;4953770;28;6985;-62
2023/10/21 12:42:33;;;;;;;;;;;;;;;22.91;44.30;92865.41;4953445;28;7201;-62
2023/10/21 12:45:24;;;;;;;;;;;;;;;22.88;44.35;92858.97;4949995;28;8397;-62
2023/10/21 12:48:19;;;;;;;;;;;;;;;22.90;44.66;92874.91;4934579;29;7181;-62
2023/10/21 12:51:20;;;;;;;;;;;;;;;22.89;44.67;92874.16;4932641;28;7019;-62
2023/10/21 12:53:53;;;;;;;;;;;;;;;22.90;44.32;92872.16;4934449;29;7965;-62
2023/10/21 12:56:26;;;;;;;;;;;;;;;22.88;44.32;92872.69;4925642;28;7259;-62
2023/10/21 12:58:52;;;;;;;;;;;;;;;22.88;44.96;92861.00;4934588;29;9553;-62
2023/10/21 13:01:19;;;;;;;;;;;;;;;22.87;44.36;92865.75;4920002;29;7271;-62
2023/10/21 13:04:13;;;;;;;;;;;;;;;22.90;44.61;92867.41;4897924;29;9312;-64
2023/10/21 13:06:42;;;;;;;;;;;;;;;22.89;44.59;92851.50;4937254;28;6882;-64
2023/10/21 13:09:29;;;;;;;;;;;;;;;22.88;44.45;92858.25;4986448;28;7077;-64
2023/10/21 13:12:09;;;;;;;;;;;;;;;22.88;44.34;92858.25;4995855;28;7357;-64
2023/10/21 13:14:46;;;;;;;;;;;;;;;22.88;44.33;92861.72;4976327;28;7134;-64
2023/10/21 13:17:14;;;;;;;;;;;;;;;22.90;44.35;92867.41;4989055;28;9927;-64
2023/10/21 13:19:44;;;;;;;;;;;;;;;22.88;44.18;92875.41;4991556;28;7075;-65
2023/10/21 13:22:22;;;;;;;;;;;;;;;22.89;44.20;92870.69;4993403;28;9164;-64
2023/10/21 13:24:56;;;;;;;;;;;;;;;22.89;44.42;92876.91;4984546;28;7250;-64
2023/10/21 13:27:25;;;;;;;;;;;;;;;22.89;44.56;92876.91;4998491;28;9203;-64
2023/10/21 13:29:51;;;;;;;;;;;;;;;22.89;44.31;92874.16;5034984;28;9219;-64
2023/10/21 13:32:27;;;;;;;;;;;;;;;22.92;44.05;92883.34;5057413;28;7232;-64
2023/10/21 13:34:55;;;;;;;;;;;;;;;22.88;44.27;92883.66;5066900;28;7139;-64
2023/10/21 13:37:32;;;;;;;;;;;;;;;22.90;44.20;92892.06;5055041;28;7278;-64
2023/10/21 13:40:03;;;;;;;;;;;;;;;22.89;44.17;92882.41;5055876;28;9239;-64
2023/10/21 13:42:29;;;;;;;;;;;;;;;22.90;44.32;92878.38;5052412;28;7348;-64
2023/10/21 13:44:58;;;;;;;;;;;;;;;22.87;44.79;92879.44;5054527;28;8946;-64
2023/10/21 13:47:27;;;;;;;;;;;;;;;22.86;44.65;92883.44;5035989;28;8826;-64
2023/10/21 13:49:58;;;;;;;;;;;;;;;22.87;44.54;92887.66;5040406;28;9129;-64
2023/10/21 13:52:35;;;;;;;;;;;;;;;22.86;44.73;92899.16;5078966;28;9169;-64
2023/10/21 13:55:18;;;;;;;;;;;;;;;22.87;44.67;92898.63;5087790;28;9522;-64
2023/10/21 13:58:20;;;;;;;;;;;;;;;22.88;44.62;92896.63;5056426;28;7330;-64